createdAt,value
2022-12-20T00:08:02.503Z,7.3
2022-12-20T00:20:02.449Z,6.1
2022-12-20T00:32:02.340Z,5.8
2022-12-20T00:44:02.314Z,6.7
2022-12-20T00:56:02.388Z,6.8
2022-12-20T01:08:02.211Z,5.4
2022-12-20T01:20:02.285Z,5.2
2022-12-20T01:32:02.458Z,6.6
2022-12-20T01:44:02.347Z,6.7
2022-12-20T01:56:02.254Z,6.6
2022-12-20T02:08:02.212Z,6.9
2022-12-20T02:20:02.214Z,6.8
2022-12-20T02:32:02.140Z,6.9
2022-12-20T02:44:02.288Z,6.9
2022-12-20T02:56:02.186Z,7.0
2022-12-20T03:08:02.279Z,7.1
2022-12-20T03:20:02.274Z,7.0
2022-12-20T03:32:02.239Z,6.4
2022-12-20T03:44:02.337Z,4.9
2022-12-20T03:56:02.134Z,5.1
2022-12-20T04:08:02.231Z,3.9
2022-12-20T04:20:02.131Z,4.0
2022-12-20T04:32:02.244Z,3.5
2022-12-20T04:44:02.125Z,3.7
2022-12-20T04:56:02.103Z,3.5
2022-12-20T05:08:02.142Z,3.5
2022-12-20T05:20:02.191Z,3.3
2022-12-20T05:32:02.149Z,3.7
2022-12-20T05:44:02.098Z,3.7
2022-12-20T05:56:02.179Z,3.8
2022-12-20T06:08:02.172Z,3.9
2022-12-20T06:20:02.109Z,4.4
2022-12-20T06:32:02.179Z,4.2
2022-12-20T06:44:02.283Z,4.3
2022-12-20T06:56:02.105Z,3.7
2022-12-20T07:08:02.113Z,4.0
2022-12-20T07:20:06.268Z,4.2
2022-12-20T07:32:02.248Z,3.2
2022-12-20T07:44:03.026Z,3.3
2022-12-20T07:56:02.106Z,4.2
2022-12-20T08:08:02.111Z,4.2
2022-12-20T08:20:02.133Z,4.2
2022-12-20T08:32:02.135Z,4.5
2022-12-20T08:44:02.113Z,4.6
2022-12-20T08:56:02.103Z,4.9
2022-12-20T09:08:02.110Z,4.3
2022-12-20T09:20:02.099Z,4.3
2022-12-20T09:32:02.103Z,4.4
2022-12-20T09:44:02.428Z,4.8
2022-12-20T09:56:02.190Z,5.8
2022-12-20T10:08:02.111Z,7.0
2022-12-20T10:20:02.125Z,7.8
2022-12-20T10:32:02.116Z,8.1
2022-12-20T10:44:02.226Z,8.3
2022-12-20T10:56:02.111Z,8.6
2022-12-20T11:08:34.842Z,8.7
2022-12-20T11:20:02.097Z,8.9
2022-12-20T11:32:02.167Z,9.0
2022-12-20T11:44:24.400Z,9.2
2022-12-20T11:56:02.134Z,9.3
2022-12-20T12:08:02.143Z,9.3
2022-12-20T12:20:02.263Z,9.4
2022-12-20T12:32:02.225Z,9.4
2022-12-20T12:44:02.171Z,9.5
2022-12-20T12:56:26.466Z,9.7
2022-12-20T13:08:02.103Z,9.8
2022-12-20T13:20:02.096Z,9.8
2022-12-20T13:32:02.120Z,9.8
2022-12-20T13:44:02.122Z,9.8
2022-12-20T13:56:02.232Z,9.9
2022-12-20T14:08:02.116Z,10.0
2022-12-20T14:20:02.133Z,10.1
2022-12-20T14:32:02.099Z,10.0
2022-12-20T14:44:02.104Z,10.0
2022-12-20T14:56:02.103Z,10.0
2022-12-20T15:08:02.116Z,9.9
2022-12-20T15:20:02.426Z,9.9
2022-12-20T15:32:02.177Z,9.9
2022-12-20T15:44:02.108Z,9.8
2022-12-20T15:56:02.109Z,9.8
2022-12-20T16:08:02.117Z,9.8
2022-12-20T16:20:02.127Z,9.9
2022-12-20T16:32:02.120Z,9.9
2022-12-20T16:44:02.602Z,9.9
2022-12-20T16:56:02.102Z,10.0
2022-12-20T17:08:02.110Z,10.0
2022-12-20T17:20:02.213Z,10.1
2022-12-20T17:32:02.181Z,10.2
2022-12-20T17:44:02.102Z,10.2
2022-12-20T17:56:02.115Z,10.1
2022-12-20T18:08:02.123Z,10.1
2022-12-20T18:20:02.210Z,9.9
2022-12-20T18:32:02.172Z,9.8
2022-12-20T18:44:02.102Z,9.8
2022-12-20T18:56:02.241Z,9.8
2022-12-20T19:08:02.113Z,10.0
2022-12-20T19:20:02.107Z,10.0
2022-12-20T19:32:02.104Z,10.0
2022-12-20T19:44:02.197Z,10.0
2022-12-20T19:56:02.188Z,9.9
2022-12-20T20:08:02.141Z,9.8
2022-12-20T20:20:02.105Z,9.9
2022-12-20T20:32:02.103Z,9.9
2022-12-20T20:44:02.099Z,9.7
2022-12-20T20:56:02.144Z,9.6
2022-12-20T21:08:02.111Z,9.5
2022-12-20T21:20:02.120Z,9.5
2022-12-20T21:32:02.101Z,9.6
2022-12-20T21:44:02.144Z,9.7
2022-12-20T21:56:02.188Z,9.7
2022-12-20T22:08:02.104Z,9.6
2022-12-20T22:20:02.117Z,9.5
2022-12-20T22:32:02.176Z,9.4
2022-12-20T22:44:02.094Z,9.4
2022-12-20T22:56:02.097Z,9.4
2022-12-20T23:08:02.271Z,9.4
2022-12-20T23:20:02.108Z,9.5
2022-12-20T23:32:02.208Z,9.5
2022-12-20T23:44:02.095Z,9.5
2022-12-20T23:56:02.101Z,9.6
